createdAt,value
2022-08-14T00:00:00.205Z,68.7
2022-08-14T00:01:00.208Z,68.7
2022-08-14T00:02:02.361Z,71.1
2022-08-14T00:03:00.181Z,71.1
2022-08-14T00:04:00.152Z,70.2
2022-08-14T00:05:00.161Z,70.2
2022-08-14T00:06:01.274Z,70.6
2022-08-14T00:07:00.164Z,70.6
2022-08-14T00:08:00.173Z,68.4
2022-08-14T00:09:00.171Z,68.4
2022-08-14T00:10:49.217Z,70.8
2022-08-14T00:11:00.153Z,70.8
2022-08-14T00:12:00.171Z,70.5
2022-08-14T00:13:00.552Z,70.5
2022-08-14T00:14:02.129Z,71.6
2022-08-14T00:15:00.859Z,71.6
2022-08-14T00:16:00.213Z,73.8
2022-08-14T00:17:01.258Z,73.8
2022-08-14T00:18:00.984Z,72.2
2022-08-14T00:19:06.152Z,72.2
2022-08-14T00:20:00.204Z,71.4
2022-08-14T00:21:00.328Z,71.4
2022-08-14T00:22:00.154Z,72.5
2022-08-14T00:23:08.198Z,72.5
2022-08-14T00:24:01.741Z,71.4
2022-08-14T00:25:00.222Z,71.4
2022-08-14T00:26:06.543Z,73.5
2022-08-14T00:27:02.269Z,73.5
2022-08-14T00:28:00.718Z,73.3
2022-08-14T00:29:00.166Z,73.3
2022-08-14T00:30:00.322Z,74.4
2022-08-14T00:31:00.244Z,74.4
2022-08-14T00:32:00.161Z,73.3
2022-08-14T00:33:00.197Z,73.3
2022-08-14T00:34:36.064Z,77.5
2022-08-14T00:35:00.326Z,77.5
2022-08-14T00:36:36.035Z,77.1
2022-08-14T00:37:00.162Z,77.1
2022-08-14T00:38:00.294Z,75.7
2022-08-14T00:39:00.156Z,75.7
2022-08-14T00:40:00.615Z,74.6
2022-08-14T00:41:00.320Z,74.6
2022-08-14T00:42:01.032Z,75.8
2022-08-14T00:43:00.766Z,75.8
2022-08-14T00:44:00.169Z,74.9
2022-08-14T00:45:00.179Z,74.9
2022-08-14T00:46:05.344Z,76.6
2022-08-14T00:47:01.175Z,76.6
2022-08-14T00:48:00.346Z,75.4
2022-08-14T00:49:00.160Z,75.4
2022-08-14T00:50:01.009Z,78.2
2022-08-14T00:51:00.436Z,78.2
2022-08-14T00:52:00.159Z,76.3
2022-08-14T00:53:00.376Z,76.3
2022-08-14T00:54:00.411Z,78.7
2022-08-14T00:55:01.375Z,78.7
2022-08-14T00:56:00.218Z,77.8
2022-08-14T00:57:00.163Z,77.8
2022-08-14T00:58:00.441Z,76.6
2022-08-14T00:59:00.176Z,76.6
2022-08-14T01:00:01.014Z,78.5
2022-08-14T01:01:03.380Z,80.3
2022-08-14T01:02:00.567Z,80.3
2022-08-14T01:03:00.365Z,80.3
2022-08-14T01:04:00.879Z,78.8
2022-08-14T01:05:00.203Z,78.8
2022-08-14T01:06:00.557Z,80.4
2022-08-14T01:07:00.337Z,80.4
2022-08-14T01:08:00.901Z,79.5
2022-08-14T01:09:00.287Z,79.5
2022-08-14T01:10:01.330Z,80.7
2022-08-14T01:11:00.724Z,80.7
2022-08-14T01:12:03.245Z,78.1
2022-08-14T01:13:00.367Z,78.1
2022-08-14T01:14:01.001Z,80.1
2022-08-14T01:15:02.099Z,80.1
2022-08-14T01:16:03.053Z,81.0
2022-08-14T01:17:00.165Z,81.0
2022-08-14T01:18:00.338Z,80.1
2022-08-14T01:19:02.270Z,80.1
2022-08-14T01:20:00.285Z,81.5
2022-08-14T01:21:00.359Z,81.5
2022-08-14T01:22:00.279Z,81.4
2022-08-14T01:23:00.183Z,81.4
2022-08-14T01:24:00.700Z,82.7
2022-08-14T01:25:00.169Z,82.7
2022-08-14T01:26:00.484Z,81.3
2022-08-14T01:27:00.925Z,81.3
2022-08-14T01:28:00.201Z,79.5
2022-08-14T01:29:01.161Z,79.5
2022-08-14T01:30:03.942Z,83.1
2022-08-14T01:31:00.512Z,83.1
2022-08-14T01:32:00.367Z,82.5
2022-08-14T01:33:00.167Z,82.5
2022-08-14T01:35:18.974Z,82.7
2022-08-14T01:35:21.220Z,82.7
2022-08-14T01:36:03.993Z,82.3
2022-08-14T01:37:00.164Z,82.3
2022-08-14T01:38:00.168Z,82.1
2022-08-14T01:39:00.318Z,82.1
2022-08-14T01:40:00.218Z,82.1
2022-08-14T01:41:01.014Z,82.1
2022-08-14T01:42:00.223Z,80.5
2022-08-14T01:43:00.175Z,80.5
2022-08-14T01:44:01.304Z,80.8
2022-08-14T01:45:00.401Z,80.8
2022-08-14T01:46:06.948Z,80.8
2022-08-14T01:47:05.819Z,80.8
2022-08-14T01:48:03.074Z,81.4
2022-08-14T01:49:01.156Z,81.4
2022-08-14T01:50:01.635Z,82.5
2022-08-14T01:51:00.270Z,82.5
2022-08-14T01:52:00.163Z,81.7
2022-08-14T01:53:01.233Z,81.7
2022-08-14T01:54:01.598Z,84.4
2022-08-14T01:55:00.164Z,84.4
2022-08-14T01:56:03.591Z,84.4
2022-08-14T01:57:00.413Z,84.4
2022-08-14T01:58:01.583Z,85.1
2022-08-14T01:59:00.164Z,85.1
2022-08-14T02:00:00.176Z,85.2
2022-08-14T02:01:00.293Z,85.2
2022-08-14T02:02:01.384Z,85.5
2022-08-14T02:03:00.153Z,85.5
2022-08-14T02:04:00.820Z,87.0
2022-08-14T02:05:00.569Z,87.0
2022-08-14T02:06:31.958Z,87.3
2022-08-14T02:07:00.459Z,87.3
2022-08-14T02:08:08.825Z,89.2
2022-08-14T02:09:00.160Z,89.2
2022-08-14T02:10:00.188Z,88.6
2022-08-14T02:11:00.251Z,88.6
2022-08-14T02:12:01.051Z,86.4
2022-08-14T02:13:00.228Z,86.4
2022-08-14T02:14:07.529Z,88.6
2022-08-14T02:15:01.520Z,88.6
2022-08-14T02:16:00.148Z,87.2
2022-08-14T02:17:00.817Z,87.2
2022-08-14T02:18:00.188Z,88.7
2022-08-14T02:19:00.947Z,88.7
2022-08-14T02:20:00.382Z,86.8
2022-08-14T02:21:00.449Z,86.8
2022-08-14T02:22:03.102Z,91.9
2022-08-14T02:23:00.173Z,91.9
2022-08-14T02:24:00.761Z,87.2
2022-08-14T02:25:00.447Z,87.2
2022-08-14T02:26:24.894Z,89.5
2022-08-14T02:28:22.113Z,92.6
2022-08-14T02:28:22.427Z,89.5
2022-08-14T02:29:03.928Z,88.5
2022-08-14T02:30:02.115Z,88.5
2022-08-14T02:31:00.160Z,88.5
2022-08-14T02:32:00.474Z,88.0
2022-08-14T02:33:00.154Z,88.0
2022-08-14T02:34:22.617Z,88.5
2022-08-14T02:35:00.184Z,88.5
2022-08-14T02:36:05.038Z,89.2
2022-08-14T02:37:06.922Z,89.2
2022-08-14T02:38:00.161Z,89.2
2022-08-14T02:39:00.158Z,89.2
2022-08-14T02:40:00.310Z,87.5
2022-08-14T02:41:00.277Z,87.5
2022-08-14T02:42:00.241Z,83.1
2022-08-14T02:43:02.436Z,83.1
2022-08-14T02:44:01.490Z,90.1
2022-08-14T02:45:00.150Z,90.1
2022-08-14T02:46:00.168Z,90.5
2022-08-14T02:47:01.215Z,90.5
2022-08-14T02:48:02.249Z,87.3
2022-08-14T02:49:02.561Z,87.3
2022-08-14T02:50:00.198Z,88.0
2022-08-14T02:51:01.216Z,88.0
2022-08-14T02:52:00.420Z,88.6
2022-08-14T02:53:03.141Z,88.6
2022-08-14T02:54:00.290Z,85.6
2022-08-14T02:55:00.158Z,85.6
2022-08-14T02:56:02.982Z,87.4
2022-08-14T02:57:14.284Z,87.4
2022-08-14T02:58:03.516Z,87.8
2022-08-14T02:59:00.377Z,87.8
2022-08-14T03:00:00.192Z,85.5
2022-08-14T03:01:01.636Z,85.5
2022-08-14T03:02:00.961Z,85.2
2022-08-14T03:03:01.255Z,85.2
2022-08-14T03:04:00.164Z,83.3
2022-08-14T03:05:00.171Z,83.3
2022-08-14T03:06:00.304Z,82.4
2022-08-14T03:07:07.321Z,82.4
2022-08-14T03:08:09.102Z,81.7
2022-08-14T03:09:00.218Z,81.7
2022-08-14T03:10:26.821Z,83.7
2022-08-14T03:11:00.513Z,83.7
2022-08-14T03:12:00.153Z,80.7
2022-08-14T03:13:00.724Z,80.7
2022-08-14T03:14:00.355Z,83.2
2022-08-14T03:15:00.805Z,83.2
2022-08-14T03:16:01.047Z,84.3
2022-08-14T03:17:00.156Z,84.3
2022-08-14T03:18:00.157Z,83.3
2022-08-14T03:19:01.303Z,83.3
2022-08-14T03:20:00.193Z,83.1
2022-08-14T03:21:01.710Z,83.1
2022-08-14T03:22:00.162Z,84.4
2022-08-14T03:23:00.520Z,84.4
2022-08-14T03:24:00.179Z,82.4
2022-08-14T03:25:00.162Z,82.4
2022-08-14T03:26:00.537Z,81.1
2022-08-14T03:27:00.162Z,81.1
2022-08-14T03:28:02.773Z,82.7
2022-08-14T03:29:01.179Z,82.7
2022-08-14T03:30:00.164Z,83.3
2022-08-14T03:31:00.326Z,83.3
2022-08-14T03:32:00.156Z,85.0
2022-08-14T03:33:00.342Z,85.0
2022-08-14T03:34:00.541Z,87.0
2022-08-14T03:35:00.170Z,87.0
2022-08-14T03:37:28.456Z,84.9
2022-08-14T03:37:28.834Z,84.9
2022-08-14T03:39:12.265Z,84.5
2022-08-14T03:39:12.439Z,84.5
2022-08-14T03:40:00.409Z,84.9
2022-08-14T03:41:00.143Z,84.9
2022-08-14T03:42:00.169Z,87.7
2022-08-14T03:43:00.156Z,87.7
2022-08-14T03:45:19.678Z,88.4
2022-08-14T03:45:20.164Z,88.4
2022-08-14T03:46:00.168Z,86.9
2022-08-14T03:47:00.198Z,86.9
2022-08-14T03:48:11.068Z,85.5
2022-08-14T03:49:00.231Z,85.5
2022-08-14T03:50:00.158Z,85.4
2022-08-14T03:51:01.560Z,85.4
2022-08-14T03:52:01.179Z,85.3
2022-08-14T03:53:01.188Z,85.3
2022-08-14T03:54:02.358Z,86.2
2022-08-14T03:55:00.190Z,86.2
2022-08-14T03:56:00.165Z,86.7
2022-08-14T03:57:00.344Z,86.7
2022-08-14T03:58:00.893Z,85.0
2022-08-14T03:59:00.850Z,85.0
2022-08-14T04:00:00.917Z,87.5
2022-08-14T04:01:00.360Z,87.5
2022-08-14T04:02:02.251Z,86.6
2022-08-14T04:03:01.214Z,86.6
2022-08-14T04:04:00.152Z,87.1
2022-08-14T04:05:11.563Z,87.1
2022-08-14T04:06:00.332Z,86.0
2022-08-14T04:07:00.237Z,86.0
2022-08-14T04:08:22.433Z,85.7
2022-08-14T04:09:00.325Z,85.7
2022-08-14T04:10:00.381Z,85.5
2022-08-14T04:11:01.622Z,85.5
2022-08-14T04:12:00.159Z,87.5
2022-08-14T04:13:03.751Z,87.5
2022-08-14T04:14:00.509Z,89.6
2022-08-14T04:15:00.165Z,89.6
2022-08-14T04:16:04.967Z,92.4
2022-08-14T04:17:00.156Z,92.4
2022-08-14T04:18:04.162Z,94.8
2022-08-14T04:19:00.589Z,94.8
2022-08-14T04:20:00.236Z,88.4
2022-08-14T04:21:00.164Z,88.4
2022-08-14T04:22:03.641Z,90.5
2022-08-14T04:23:00.246Z,90.5
2022-08-14T04:24:00.428Z,87.0
2022-08-14T04:25:04.463Z,87.0
2022-08-14T04:26:01.231Z,93.3
2022-08-14T04:27:00.180Z,93.3
2022-08-14T04:28:03.158Z,93.2
2022-08-14T04:29:14.640Z,93.2
2022-08-14T04:30:00.493Z,95.5
2022-08-14T04:31:00.149Z,95.5
2022-08-14T04:33:01.371Z,91.8
2022-08-14T04:33:05.555Z,91.8
2022-08-14T04:34:00.151Z,97.3
2022-08-14T04:35:00.334Z,97.3
2022-08-14T04:36:00.146Z,95.0
2022-08-14T04:37:00.290Z,95.0
2022-08-14T04:38:07.734Z,93.9
2022-08-14T04:39:00.150Z,93.9
2022-08-14T04:40:00.241Z,91.9
2022-08-14T04:41:00.564Z,91.9
2022-08-14T04:42:00.149Z,97.7
2022-08-14T04:43:00.167Z,97.7
2022-08-14T04:44:00.163Z,95.2
2022-08-14T04:45:01.069Z,95.2
2022-08-14T04:46:00.601Z,98.3
2022-08-14T04:47:00.148Z,98.3
2022-08-14T04:48:00.184Z,93.8
2022-08-14T04:49:00.582Z,93.8
2022-08-14T04:50:00.897Z,97.3
2022-08-14T04:51:00.991Z,97.3
2022-08-14T04:52:00.177Z,97.8
2022-08-14T04:53:01.456Z,97.8
2022-08-14T04:54:00.197Z,100.0
2022-08-14T04:55:00.153Z,100.0
2022-08-14T04:56:00.423Z,98.3
2022-08-14T04:57:00.187Z,98.3
2022-08-14T04:58:02.493Z,97.7
2022-08-14T04:59:02.290Z,97.7
2022-08-14T05:00:00.164Z,93.0
2022-08-14T05:01:01.989Z,93.0
2022-08-14T05:02:00.241Z,95.9
2022-08-14T05:03:00.473Z,95.9
2022-08-14T05:04:00.157Z,100.0
2022-08-14T05:05:00.165Z,100.0
2022-08-14T05:06:01.896Z,99.2
2022-08-14T05:07:00.153Z,99.2
2022-08-14T05:08:04.365Z,97.5
2022-08-14T05:09:00.593Z,97.5
2022-08-14T05:10:00.158Z,96.7
2022-08-14T05:11:04.113Z,100.0
2022-08-14T05:13:02.885Z,100.0
2022-08-14T05:13:12.938Z,100.0
2022-08-14T05:14:33.824Z,100.0
2022-08-14T05:15:00.152Z,100.0
2022-08-14T05:16:00.624Z,100.0
2022-08-14T05:17:01.093Z,100.0
2022-08-14T05:18:17.784Z,100.0
2022-08-14T05:19:24.683Z,100.0
2022-08-14T05:21:04.154Z,100.0
2022-08-14T05:21:55.656Z,100.0
2022-08-14T05:22:16.501Z,100.0
2022-08-14T05:23:01.438Z,100.0
2022-08-14T05:24:00.959Z,100.0
2022-08-14T05:25:00.170Z,100.0
2022-08-14T05:26:00.898Z,100.0
2022-08-14T05:27:00.158Z,100.0
2022-08-14T05:28:16.315Z,100.0
2022-08-14T05:29:00.167Z,100.0
2022-08-14T05:30:02.785Z,100.0
2022-08-14T05:31:02.373Z,100.0
2022-08-14T05:32:00.202Z,100.0
2022-08-14T05:33:00.147Z,100.0
2022-08-14T05:34:00.164Z,100.0
2022-08-14T05:35:00.334Z,100.0
2022-08-14T05:36:01.142Z,100.0
2022-08-14T05:37:02.288Z,100.0
2022-08-14T05:38:10.796Z,100.0
2022-08-14T05:39:00.224Z,100.0
2022-08-14T05:40:00.563Z,100.0
2022-08-14T05:41:01.665Z,100.0
2022-08-14T05:42:00.628Z,100.0
2022-08-14T05:43:00.370Z,100.0
2022-08-14T05:44:00.245Z,100.0
2022-08-14T05:45:00.738Z,100.0
2022-08-14T05:46:00.230Z,100.0
2022-08-14T05:47:00.154Z,100.0
2022-08-14T05:48:01.644Z,100.0
2022-08-14T05:49:00.160Z,100.0
2022-08-14T05:50:00.167Z,100.0
2022-08-14T05:51:00.168Z,100.0
2022-08-14T05:52:01.638Z,100.0
2022-08-14T05:53:00.841Z,100.0
2022-08-14T05:54:11.418Z,100.0
2022-08-14T05:55:00.180Z,100.0
2022-08-14T05:56:00.148Z,100.0
2022-08-14T05:57:00.182Z,100.0
2022-08-14T05:58:01.664Z,100.0
2022-08-14T05:59:00.587Z,100.0
2022-08-14T06:00:00.267Z,100.0
2022-08-14T06:01:00.375Z,100.0
2022-08-14T06:02:00.236Z,100.0
2022-08-14T06:03:00.513Z,100.0
2022-08-14T06:04:00.164Z,100.0
2022-08-14T06:05:00.173Z,100.0
2022-08-14T06:06:00.542Z,100.0
2022-08-14T06:07:00.152Z,100.0
2022-08-14T06:08:00.590Z,100.0
2022-08-14T06:09:00.165Z,100.0
2022-08-14T06:10:04.165Z,100.0
2022-08-14T06:11:01.422Z,100.0
2022-08-14T06:12:00.153Z,100.0
2022-08-14T06:13:00.307Z,100.0
2022-08-14T06:14:00.158Z,100.0
2022-08-14T06:15:00.286Z,100.0
2022-08-14T06:16:00.424Z,100.0
2022-08-14T06:17:00.153Z,100.0
2022-08-14T06:18:00.725Z,100.0
2022-08-14T06:19:00.149Z,100.0
2022-08-14T06:20:00.167Z,100.0
2022-08-14T06:21:02.143Z,100.0
2022-08-14T06:22:00.158Z,100.0
2022-08-14T06:23:00.403Z,100.0
2022-08-14T06:24:00.178Z,100.0
2022-08-14T06:25:00.180Z,100.0
2022-08-14T06:26:00.182Z,100.0
2022-08-14T06:27:04.368Z,100.0
2022-08-14T06:28:01.991Z,100.0
2022-08-14T06:29:00.140Z,100.0
2022-08-14T06:30:00.179Z,100.0
2022-08-14T06:31:00.148Z,100.0
2022-08-14T06:32:37.916Z,100.0
2022-08-14T06:33:01.832Z,100.0
2022-08-14T06:35:03.187Z,100.0
2022-08-14T06:35:09.775Z,100.0
2022-08-14T06:36:00.166Z,100.0
2022-08-14T06:37:00.146Z,100.0
2022-08-14T06:38:00.207Z,100.0
2022-08-14T06:39:00.151Z,100.0
2022-08-14T06:40:00.243Z,100.0
2022-08-14T06:41:00.154Z,100.0
2022-08-14T06:42:00.155Z,100.0
2022-08-14T06:43:03.527Z,100.0
2022-08-14T06:44:00.152Z,100.0
2022-08-14T06:45:00.161Z,100.0
2022-08-14T06:46:00.348Z,100.0
2022-08-14T06:47:01.598Z,100.0
2022-08-14T06:48:00.873Z,100.0
2022-08-14T06:49:00.160Z,100.0
2022-08-14T06:50:00.427Z,100.0
2022-08-14T06:51:00.157Z,100.0
2022-08-14T06:52:00.147Z,100.0
2022-08-14T06:53:00.159Z,100.0
2022-08-14T06:54:00.276Z,100.0
2022-08-14T06:55:00.251Z,100.0
2022-08-14T06:56:01.973Z,100.0
2022-08-14T06:57:00.170Z,100.0
2022-08-14T06:58:00.514Z,100.0
2022-08-14T06:59:00.180Z,100.0
2022-08-14T07:00:00.196Z,100.0
2022-08-14T07:01:00.238Z,100.0
2022-08-14T07:02:00.157Z,100.0
2022-08-14T07:03:00.158Z,100.0
2022-08-14T07:04:00.151Z,100.0
2022-08-14T07:05:00.184Z,100.0
2022-08-14T07:06:00.154Z,100.0
2022-08-14T07:07:00.152Z,100.0
2022-08-14T07:08:00.214Z,100.0
2022-08-14T07:09:00.164Z,100.0
2022-08-14T07:10:00.195Z,100.0
2022-08-14T07:11:00.646Z,100.0
2022-08-14T07:12:00.161Z,100.0
2022-08-14T07:13:03.625Z,100.0
2022-08-14T07:14:00.155Z,100.0
2022-08-14T07:15:01.436Z,100.0
2022-08-14T07:16:00.394Z,100.0
2022-08-14T07:17:00.153Z,100.0
2022-08-14T07:18:00.616Z,100.0
2022-08-14T07:19:00.149Z,100.0
2022-08-14T07:20:00.174Z,100.0
2022-08-14T07:21:01.350Z,100.0
2022-08-14T07:22:00.158Z,100.0
2022-08-14T07:23:07.372Z,100.0
2022-08-14T07:24:00.146Z,100.0
2022-08-14T07:25:00.174Z,100.0
2022-08-14T07:26:01.100Z,100.0
2022-08-14T07:27:00.164Z,100.0
2022-08-14T07:28:00.519Z,100.0
2022-08-14T07:29:00.151Z,100.0
2022-08-14T07:30:02.877Z,100.0
2022-08-14T07:31:04.698Z,100.0
2022-08-14T07:32:00.306Z,100.0
2022-08-14T07:33:00.204Z,100.0
2022-08-14T07:34:00.165Z,100.0
2022-08-14T07:35:00.184Z,100.0
2022-08-14T07:36:01.538Z,100.0
2022-08-14T07:37:01.004Z,100.0
2022-08-14T07:38:00.175Z,99.8
2022-08-14T07:39:00.596Z,99.8
2022-08-14T07:40:01.181Z,100.0
2022-08-14T07:41:00.724Z,100.0
2022-08-14T07:42:00.169Z,99.6
2022-08-14T07:43:14.194Z,99.6
2022-08-14T07:44:05.631Z,98.3
2022-08-14T07:45:00.161Z,98.3
2022-08-14T07:46:00.284Z,98.4
2022-08-14T07:47:00.175Z,98.4
2022-08-14T07:48:00.146Z,98.9
2022-08-14T07:49:00.148Z,98.9
2022-08-14T07:50:01.769Z,97.7
2022-08-14T07:51:10.874Z,97.7
2022-08-14T07:52:00.833Z,95.9
2022-08-14T07:53:00.706Z,95.9
2022-08-14T07:54:00.154Z,96.2
2022-08-14T07:55:00.151Z,96.2
2022-08-14T07:56:21.534Z,95.8
2022-08-14T07:57:00.681Z,95.8
2022-08-14T07:58:00.157Z,95.2
2022-08-14T07:59:00.145Z,95.2
2022-08-14T08:00:00.148Z,94.9
2022-08-14T08:01:00.290Z,94.9
2022-08-14T08:02:02.529Z,94.1
2022-08-14T08:03:00.629Z,94.1
2022-08-14T08:04:03.336Z,94.4
2022-08-14T08:05:00.969Z,94.4
2022-08-14T08:06:00.407Z,92.9
2022-08-14T08:07:00.401Z,92.9
2022-08-14T08:08:00.805Z,93.1
2022-08-14T08:09:03.415Z,93.1
2022-08-14T08:10:03.231Z,92.9
2022-08-14T08:11:03.450Z,92.9
2022-08-14T08:12:01.453Z,92.2
2022-08-14T08:13:08.476Z,91.9
2022-08-14T08:14:02.165Z,91.9
2022-08-14T08:15:05.616Z,91.9
2022-08-14T08:16:00.167Z,91.2
2022-08-14T08:17:00.160Z,91.2
2022-08-14T08:18:03.953Z,91.5
2022-08-14T08:19:10.128Z,91.5
2022-08-14T08:20:00.182Z,91.9
2022-08-14T08:21:00.501Z,91.9
2022-08-14T08:22:00.151Z,91.1
2022-08-14T08:23:06.479Z,91.1
2022-08-14T08:24:00.161Z,90.6
2022-08-14T08:25:00.171Z,90.6
2022-08-14T08:26:00.156Z,91.1
2022-08-14T08:27:00.303Z,91.1
2022-08-14T08:28:01.219Z,89.7
2022-08-14T08:29:00.152Z,89.7
2022-08-14T08:30:02.547Z,90.4
2022-08-14T08:31:01.357Z,90.4
2022-08-14T08:32:01.937Z,89.4
2022-08-14T08:33:00.848Z,89.4
2022-08-14T08:34:02.931Z,89.0
2022-08-14T08:35:00.191Z,89.0
2022-08-14T08:36:02.626Z,88.4
2022-08-14T08:37:05.191Z,88.4
2022-08-14T08:38:02.969Z,88.3
2022-08-14T08:39:15.233Z,88.3
2022-08-14T08:40:02.296Z,87.9
2022-08-14T08:41:00.262Z,87.9
2022-08-14T08:42:00.147Z,89.0
2022-08-14T08:43:00.618Z,89.0
2022-08-14T08:44:03.858Z,88.7
2022-08-14T08:45:00.153Z,88.7
2022-08-14T08:46:05.204Z,88.6
2022-08-14T08:47:00.962Z,88.6
2022-08-14T08:48:00.414Z,87.9
2022-08-14T08:50:00.408Z,86.2
2022-08-14T08:51:00.925Z,86.2
2022-08-14T08:52:00.647Z,84.6
2022-08-14T08:53:02.046Z,84.6
2022-08-14T08:54:03.397Z,85.3
2022-08-14T08:55:01.099Z,85.3
2022-08-14T08:56:00.553Z,85.4
2022-08-14T08:57:00.176Z,85.4
2022-08-14T08:58:01.750Z,84.8
2022-08-14T08:59:00.603Z,84.8
2022-08-14T09:00:00.466Z,85.1
2022-08-14T09:01:00.222Z,85.1
2022-08-14T09:02:01.154Z,84.6
2022-08-14T09:03:00.132Z,84.6
2022-08-14T09:04:00.670Z,85.0
2022-08-14T09:05:01.885Z,85.0
2022-08-14T09:06:01.333Z,82.9
2022-08-14T09:07:10.188Z,82.9
2022-08-14T09:08:31.718Z,82.7
2022-08-14T09:09:00.150Z,82.7
2022-08-14T09:10:00.850Z,83.6
2022-08-14T09:11:01.963Z,83.6
2022-08-14T09:12:00.994Z,82.3
2022-08-14T09:13:00.662Z,82.3
2022-08-14T09:16:00.702Z,82.1
2022-08-14T09:17:00.170Z,82.1
2022-08-14T09:18:00.267Z,81.4
2022-08-14T09:19:00.749Z,81.4
2022-08-14T09:20:02.191Z,79.7
2022-08-14T09:21:00.165Z,79.7
2022-08-14T09:22:00.854Z,79.8
2022-08-14T09:23:00.284Z,79.8
2022-08-14T09:24:29.477Z,79.9
2022-08-14T09:25:00.187Z,79.9
2022-08-14T09:26:01.838Z,81.5
2022-08-14T09:27:00.158Z,81.5
2022-08-14T09:28:01.010Z,79.2
2022-08-14T09:29:00.256Z,79.2
2022-08-14T09:30:00.192Z,79.0
2022-08-14T09:31:00.607Z,79.0
2022-08-14T09:32:02.135Z,77.3
2022-08-14T09:33:03.793Z,77.3
2022-08-14T09:34:09.250Z,74.4
2022-08-14T09:35:10.099Z,74.8
2022-08-14T09:36:01.151Z,74.8
2022-08-14T09:37:03.405Z,74.8
2022-08-14T09:38:19.620Z,74.8
2022-08-14T09:39:14.902Z,74.8
2022-08-14T09:40:03.795Z,74.8
2022-08-14T09:41:08.299Z,74.4
2022-08-14T09:42:21.501Z,74.4
2022-08-14T09:43:09.948Z,74.2
2022-08-14T09:44:10.089Z,74.2
2022-08-14T09:45:10.096Z,74.1
2022-08-14T09:46:05.388Z,74.1
2022-08-14T09:47:00.164Z,74.1
2022-08-14T09:48:00.686Z,75.3
2022-08-14T09:49:02.371Z,75.3
2022-08-14T09:50:00.182Z,75.5
2022-08-14T09:52:03.412Z,75.1
2022-08-14T09:53:03.730Z,75.1
2022-08-14T09:54:18.257Z,73.6
2022-08-14T09:55:00.220Z,73.6
2022-08-14T09:56:00.648Z,71.7
2022-08-14T09:57:00.236Z,71.7
2022-08-14T09:58:07.588Z,71.5
2022-08-14T09:59:09.886Z,69.8
2022-08-14T10:00:09.101Z,69.8
2022-08-14T10:01:07.400Z,69.6
2022-08-14T10:02:00.220Z,69.6
2022-08-14T10:03:00.244Z,69.6
2022-08-14T10:04:00.190Z,69.8
2022-08-14T10:05:01.203Z,69.8
2022-08-14T10:06:07.289Z,69.3
2022-08-14T10:07:00.153Z,69.3
2022-08-14T10:08:01.158Z,68.3
2022-08-14T10:09:00.131Z,68.3
2022-08-14T10:10:02.192Z,67.7
2022-08-14T10:11:03.280Z,67.7
2022-08-14T10:12:00.224Z,68.2
2022-08-14T10:13:01.575Z,68.2
2022-08-14T10:14:10.093Z,66.8
2022-08-14T10:15:00.154Z,66.8
2022-08-14T10:16:00.173Z,67.9
2022-08-14T10:17:00.215Z,67.9
2022-08-14T10:18:08.379Z,66.2
2022-08-14T10:19:09.373Z,67.1
2022-08-14T10:20:00.192Z,67.1
2022-08-14T10:21:00.281Z,67.1
2022-08-14T10:23:12.019Z,64.4
2022-08-14T10:23:14.665Z,64.7
2022-08-14T10:24:00.169Z,64.4
2022-08-14T10:25:08.680Z,64.7
2022-08-14T10:26:05.262Z,64.7
2022-08-14T10:27:00.984Z,64.7
2022-08-14T10:29:19.971Z,63.8
2022-08-14T10:30:00.223Z,63.8
2022-08-14T10:31:00.155Z,63.8
2022-08-14T10:32:00.658Z,64.7
2022-08-14T10:33:00.162Z,64.7
2022-08-14T10:34:12.814Z,64.8
2022-08-14T10:35:04.699Z,63.7
2022-08-14T10:36:00.222Z,63.7
2022-08-14T10:37:04.936Z,61.9
2022-08-14T10:38:00.193Z,61.9
2022-08-14T10:39:02.694Z,61.9
2022-08-14T10:40:05.851Z,61.4
2022-08-14T10:41:10.152Z,61.7
2022-08-14T10:42:03.206Z,61.7
2022-08-14T10:43:00.153Z,61.7
2022-08-14T10:44:07.532Z,60.4
2022-08-14T10:45:00.188Z,60.4
2022-08-14T10:46:21.748Z,61.1
2022-08-14T10:47:40.960Z,61.1
2022-08-14T10:48:07.857Z,59.9
2022-08-14T10:49:01.371Z,59.9
2022-08-14T10:50:00.341Z,60.6
2022-08-14T10:51:00.173Z,60.6
2022-08-14T10:52:01.869Z,59.5
2022-08-14T10:53:00.376Z,59.5
2022-08-14T10:54:26.222Z,60.5
2022-08-14T10:55:04.559Z,60.5
2022-08-14T10:56:01.150Z,58.9
2022-08-14T10:57:10.095Z,60.0
2022-08-14T10:58:00.187Z,60.0
2022-08-14T10:59:01.231Z,60.0
2022-08-14T11:00:10.021Z,59.6
2022-08-14T11:01:01.303Z,59.6
2022-08-14T11:02:00.451Z,58.3
2022-08-14T11:03:01.734Z,58.3
2022-08-14T11:04:00.245Z,57.3
2022-08-14T11:05:04.948Z,57.3
2022-08-14T11:06:09.901Z,56.9
2022-08-14T11:07:00.164Z,56.9
2022-08-14T11:08:00.153Z,54.0
2022-08-14T11:09:09.918Z,54.2
2022-08-14T11:10:03.491Z,54.2
2022-08-14T11:11:02.002Z,54.2
2022-08-14T11:12:35.105Z,55.1
2022-08-14T11:13:00.161Z,55.1
2022-08-14T11:14:00.151Z,51.8
2022-08-14T11:15:02.198Z,51.8
2022-08-14T11:16:00.549Z,51.1
2022-08-14T11:17:01.109Z,51.1
2022-08-14T11:18:01.379Z,52.9
2022-08-14T11:19:01.874Z,52.9
2022-08-14T11:20:01.496Z,52.3
2022-08-14T11:21:00.195Z,52.3
2022-08-14T11:22:00.842Z,51.8
2022-08-14T11:23:00.296Z,51.8
2022-08-14T11:24:01.287Z,50.5
2022-08-14T11:25:01.785Z,50.5
2022-08-14T11:26:01.072Z,52.2
2022-08-14T11:27:00.532Z,52.2
2022-08-14T11:28:00.429Z,52.0
2022-08-14T11:29:01.799Z,52.0
2022-08-14T11:30:51.483Z,50.9
2022-08-14T11:31:03.578Z,50.9
2022-08-14T11:32:00.478Z,49.5
2022-08-14T11:33:00.188Z,49.5
2022-08-14T11:34:00.166Z,49.0
2022-08-14T11:35:00.736Z,49.0
2022-08-14T11:36:01.749Z,49.6
2022-08-14T11:37:22.816Z,49.3
2022-08-14T11:38:01.466Z,49.3
2022-08-14T11:39:00.160Z,49.3
2022-08-14T11:40:00.317Z,48.4
2022-08-14T11:41:00.397Z,48.4
2022-08-14T11:42:00.291Z,48.3
2022-08-14T11:43:01.272Z,48.3
2022-08-14T11:44:00.161Z,48.3
2022-08-14T11:45:04.224Z,47.9
2022-08-14T11:46:03.952Z,47.9
2022-08-14T11:47:05.921Z,47.9
2022-08-14T11:48:13.141Z,49.0
2022-08-14T11:49:03.704Z,49.0
2022-08-14T11:50:10.092Z,49.0
2022-08-14T11:51:00.158Z,49.0
2022-08-14T11:52:00.328Z,47.6
2022-08-14T11:53:02.397Z,47.6
2022-08-14T11:54:01.209Z,48.6
2022-08-14T11:55:00.186Z,48.6
2022-08-14T11:56:01.817Z,47.5
2022-08-14T11:57:00.420Z,47.5
2022-08-14T11:58:01.498Z,47.9
2022-08-14T11:59:00.194Z,47.9
2022-08-14T12:00:01.146Z,48.5
2022-08-14T12:01:01.324Z,48.5
2022-08-14T12:02:08.874Z,47.5
2022-08-14T12:03:04.503Z,47.5
2022-08-14T12:04:08.396Z,47.2
2022-08-14T12:05:00.327Z,47.2
2022-08-14T12:06:28.099Z,46.5
2022-08-14T12:07:00.254Z,46.5
2022-08-14T12:08:05.446Z,43.3
2022-08-14T12:09:00.717Z,43.3
2022-08-14T12:10:00.173Z,42.6
2022-08-14T12:11:00.236Z,42.6
2022-08-14T12:12:10.092Z,43.3
2022-08-14T12:13:10.092Z,40.3
2022-08-14T12:14:05.743Z,40.3
2022-08-14T12:15:00.167Z,40.3
2022-08-14T12:16:06.500Z,40.6
2022-08-14T12:17:00.132Z,40.6
2022-08-14T12:18:01.269Z,41.6
2022-08-14T12:19:00.157Z,41.6
2022-08-14T12:20:03.152Z,41.2
2022-08-14T12:21:10.089Z,41.8
2022-08-14T12:22:00.248Z,41.8
2022-08-14T12:23:00.935Z,41.8
2022-08-14T12:24:01.921Z,43.3
2022-08-14T12:25:00.504Z,43.3
2022-08-14T12:26:32.148Z,43.0
2022-08-14T12:27:00.158Z,43.0
2022-08-14T12:28:01.885Z,43.3
2022-08-14T12:29:09.014Z,43.1
2022-08-14T12:30:00.210Z,43.1
2022-08-14T12:31:10.094Z,44.1
2022-08-14T12:32:01.483Z,44.1
2022-08-14T12:33:01.133Z,44.1
2022-08-14T12:34:01.369Z,41.9
2022-08-14T12:35:00.174Z,41.9
2022-08-14T12:36:04.593Z,41.0
2022-08-14T12:37:04.297Z,39.3
2022-08-14T12:38:00.164Z,39.3
2022-08-14T12:39:01.777Z,39.3
2022-08-14T12:40:08.294Z,39.9
2022-08-14T12:41:00.726Z,39.9
2022-08-14T12:42:00.887Z,39.4
2022-08-14T12:43:01.339Z,39.4
2022-08-14T12:44:01.517Z,40.0
2022-08-14T12:45:00.181Z,40.0
2022-08-14T12:46:00.152Z,39.5
2022-08-14T12:47:07.480Z,39.8
2022-08-14T12:48:01.502Z,39.8
2022-08-14T12:49:02.418Z,39.8
2022-08-14T12:50:00.157Z,39.6
2022-08-14T12:51:00.192Z,39.6
2022-08-14T12:52:00.749Z,40.5
2022-08-14T12:53:13.908Z,40.5
2022-08-14T12:54:10.088Z,40.4
2022-08-14T12:55:06.232Z,40.4
2022-08-14T12:56:21.691Z,41.2
2022-08-14T12:57:02.940Z,41.2
2022-08-14T12:58:00.491Z,40.9
2022-08-14T12:59:01.125Z,40.9
2022-08-14T13:00:22.555Z,41.5
2022-08-14T13:01:16.948Z,41.5
2022-08-14T13:02:05.582Z,39.0
2022-08-14T13:03:00.440Z,39.0
2022-08-14T13:04:03.070Z,38.6
2022-08-14T13:05:00.179Z,38.6
2022-08-14T13:06:00.400Z,38.2
2022-08-14T13:07:01.188Z,38.2
2022-08-14T13:08:02.647Z,39.2
2022-08-14T13:09:00.954Z,39.2
2022-08-14T13:10:00.766Z,38.5
2022-08-14T13:11:00.185Z,38.5
2022-08-14T13:12:31.934Z,37.6
2022-08-14T13:13:13.476Z,37.6
2022-08-14T13:14:00.718Z,40.2
2022-08-14T13:15:01.529Z,40.2
2022-08-14T13:16:01.163Z,37.4
2022-08-14T13:17:00.542Z,37.4
2022-08-14T13:18:01.565Z,38.2